createdAt,value
2023-03-17T00:01:57.650Z,7.00
2023-03-17T00:04:27.417Z,6.90
2023-03-17T00:06:56.575Z,6.90
2023-03-17T00:09:24.386Z,6.80
2023-03-17T00:11:53.570Z,6.80
2023-03-17T00:14:21.738Z,6.70
2023-03-17T00:16:51.871Z,6.70
2023-03-17T00:19:24.742Z,6.90
2023-03-17T00:21:53.165Z,6.80
2023-03-17T00:24:21.209Z,7.00
2023-03-17T00:26:49.075Z,7.10
2023-03-17T00:29:18.264Z,6.80
2023-03-17T00:31:46.638Z,7.00
2023-03-17T00:34:18.241Z,7.10
2023-03-17T00:36:48.258Z,7.20
2023-03-17T00:39:17.098Z,7.20
2023-03-17T00:41:44.921Z,7.20
2023-03-17T00:44:12.912Z,7.10
2023-03-17T00:46:42.447Z,7.10
2023-03-17T00:51:44.618Z,7.20
2023-03-17T00:54:13.577Z,7.10
2023-03-17T00:56:42.547Z,7.00
2023-03-17T00:59:20.436Z,7.10
2023-03-17T01:01:51.038Z,7.00
2023-03-17T01:04:19.524Z,6.80
2023-03-17T01:06:47.820Z,6.70
2023-03-17T01:09:18.400Z,6.70
2023-03-17T01:11:47.030Z,6.60
2023-03-17T01:14:15.105Z,6.30
2023-03-17T01:16:43.034Z,6.50
2023-03-17T01:19:13.654Z,6.60
2023-03-17T01:21:42.417Z,6.60
2023-03-17T01:24:10.481Z,6.50
2023-03-17T01:26:38.942Z,6.70
2023-03-17T01:29:07.857Z,6.80
2023-03-17T01:31:36.143Z,6.60
2023-03-17T01:34:04.297Z,6.80
2023-03-17T01:36:34.180Z,6.50
2023-03-17T01:39:03.270Z,6.50
2023-03-17T01:41:34.667Z,6.50
2023-03-17T01:44:02.530Z,6.60
2023-03-17T01:46:32.540Z,6.60
2023-03-17T01:49:07.837Z,6.60
2023-03-17T01:51:42.824Z,6.30
2023-03-17T01:54:15.202Z,6.50
2023-03-17T01:56:45.979Z,6.40
2023-03-17T01:59:20.230Z,6.30
2023-03-17T02:01:51.341Z,6.30
2023-03-17T02:04:20.731Z,5.90
2023-03-17T02:06:58.007Z,6.00
2023-03-17T02:09:27.941Z,6.10
2023-03-17T02:11:56.837Z,6.10
2023-03-17T02:14:25.486Z,5.90
2023-03-17T02:16:53.702Z,5.70
2023-03-17T02:19:21.930Z,5.70
2023-03-17T02:21:52.447Z,5.70
2023-03-17T02:24:26.352Z,5.80
2023-03-17T02:26:56.397Z,5.70
2023-03-17T02:29:24.797Z,5.80
2023-03-17T02:31:53.408Z,5.60
2023-03-17T02:34:21.742Z,5.80
2023-03-17T02:36:50.966Z,5.50
2023-03-17T02:39:19.162Z,5.50
2023-03-17T02:41:47.053Z,5.50
2023-03-17T02:44:14.924Z,5.50
2023-03-17T02:46:42.792Z,5.40
2023-03-17T02:49:11.764Z,5.40
2023-03-17T02:51:39.666Z,5.30
2023-03-17T02:54:09.199Z,5.40
2023-03-17T02:56:37.076Z,5.40
2023-03-17T02:59:06.059Z,5.70
2023-03-17T03:01:34.064Z,5.60
2023-03-17T03:04:02.406Z,5.60
2023-03-17T03:06:31.579Z,5.50
2023-03-17T03:08:59.577Z,5.60
2023-03-17T03:11:29.266Z,5.70
2023-03-17T03:13:57.236Z,5.50
2023-03-17T03:16:25.510Z,5.50
2023-03-17T03:18:53.353Z,5.40
2023-03-17T03:21:21.993Z,5.50
2023-03-17T03:23:50.083Z,5.40
2023-03-17T03:26:18.023Z,5.90
2023-03-17T03:28:47.407Z,5.60
2023-03-17T03:31:15.333Z,5.80
2023-03-17T03:33:43.540Z,5.50
2023-03-17T03:36:11.947Z,5.60
2023-03-17T03:38:39.831Z,5.80
2023-03-17T03:41:07.615Z,5.50
2023-03-17T03:43:35.837Z,5.60
2023-03-17T03:46:05.433Z,5.50
2023-03-17T03:48:33.289Z,5.50
2023-03-17T03:51:02.531Z,5.80
2023-03-17T03:53:30.788Z,5.80
2023-03-17T03:55:58.619Z,5.50
2023-03-17T03:58:26.513Z,5.60
2023-03-17T04:00:54.324Z,5.60
2023-03-17T04:03:23.645Z,5.70
2023-03-17T04:05:51.534Z,5.70
2023-03-17T04:08:19.400Z,6.00
2023-03-17T04:10:47.623Z,5.60
2023-03-17T04:13:15.475Z,5.80
2023-03-17T04:15:43.457Z,5.90
2023-03-17T04:18:11.450Z,5.90
2023-03-17T04:20:40.687Z,6.00
2023-03-17T04:23:08.656Z,5.90
2023-03-17T04:25:36.619Z,5.90
2023-03-17T04:28:04.661Z,5.80
2023-03-17T04:30:32.988Z,5.80
2023-03-17T04:33:01.001Z,5.80
2023-03-17T04:35:28.984Z,5.70
2023-03-17T04:37:58.137Z,5.80
2023-03-17T04:40:26.499Z,5.80
2023-03-17T04:42:54.336Z,5.80
2023-03-17T04:45:22.252Z,5.70
2023-03-17T04:47:50.032Z,5.70
2023-03-17T04:50:18.410Z,5.60
2023-03-17T04:52:46.255Z,5.50
2023-03-17T04:55:15.501Z,5.60
2023-03-17T04:57:43.309Z,5.60
2023-03-17T05:00:12.825Z,5.70
2023-03-17T05:02:41.066Z,5.20
2023-03-17T05:05:09.846Z,5.60
2023-03-17T05:07:37.763Z,5.40
2023-03-17T05:10:06.508Z,5.50
2023-03-17T05:12:35.749Z,5.50
2023-03-17T05:15:05.327Z,5.40
2023-03-17T05:17:33.098Z,5.20
2023-03-17T05:20:00.933Z,5.40
2023-03-17T05:22:28.753Z,5.40
2023-03-17T05:24:56.570Z,5.30
2023-03-17T05:27:24.366Z,5.20
2023-03-17T05:29:53.495Z,5.00
2023-03-17T05:32:21.387Z,4.80
2023-03-17T05:34:49.874Z,5.00
2023-03-17T05:37:18.059Z,4.90
2023-03-17T05:39:45.863Z,4.90
2023-03-17T05:42:13.756Z,4.90
2023-03-17T05:44:41.545Z,4.80
2023-03-17T05:47:11.105Z,4.80
2023-03-17T05:49:38.882Z,4.90
2023-03-17T05:52:06.785Z,4.60
2023-03-17T05:54:34.624Z,4.80
2023-03-17T05:57:02.769Z,4.70
2023-03-17T05:59:30.821Z,4.70
2023-03-17T06:01:58.836Z,4.70
2023-03-17T06:04:28.050Z,4.60
2023-03-17T06:06:55.857Z,4.70
2023-03-17T06:09:23.758Z,4.80
2023-03-17T06:11:51.904Z,4.80
2023-03-17T06:14:19.734Z,4.90
2023-03-17T06:16:47.823Z,4.80
2023-03-17T06:19:15.691Z,4.80
2023-03-17T06:21:44.859Z,4.80
2023-03-17T06:24:12.946Z,4.80
2023-03-17T06:26:42.374Z,4.80
2023-03-17T06:29:12.106Z,5.00
2023-03-17T06:31:42.122Z,4.90
2023-03-17T06:34:09.934Z,5.20
2023-03-17T06:36:39.128Z,5.20
2023-03-17T06:39:09.422Z,5.20
2023-03-17T06:41:37.311Z,5.80
2023-03-17T06:44:06.098Z,5.70
2023-03-17T06:46:34.512Z,5.70
2023-03-17T06:49:04.191Z,6.00
2023-03-17T06:51:33.355Z,6.10
2023-03-17T06:54:01.349Z,6.20
2023-03-17T06:56:30.884Z,6.20
2023-03-17T06:58:58.956Z,6.50
2023-03-17T07:01:27.224Z,6.60
2023-03-17T07:03:55.374Z,6.80
2023-03-17T07:06:24.192Z,6.90
2023-03-17T07:08:52.217Z,7.20
2023-03-17T07:11:20.272Z,7.30
2023-03-17T07:13:49.629Z,7.30
2023-03-17T07:16:19.459Z,7.20
2023-03-17T07:18:47.433Z,7.30
2023-03-17T07:21:15.551Z,7.40
2023-03-17T07:23:43.913Z,7.30
2023-03-17T07:26:11.777Z,7.70
2023-03-17T07:28:40.232Z,7.60
2023-03-17T07:31:11.463Z,7.80
2023-03-17T07:33:39.575Z,8.00
2023-03-17T07:36:08.959Z,8.00
2023-03-17T07:38:37.325Z,8.20
2023-03-17T07:41:09.689Z,8.00
2023-03-17T07:43:38.281Z,8.30
2023-03-17T07:46:06.844Z,8.40
2023-03-17T07:48:40.653Z,8.50
2023-03-17T07:51:09.791Z,8.70
2023-03-17T07:53:37.605Z,8.80
2023-03-17T07:56:06.158Z,9.20
2023-03-17T07:58:34.650Z,9.10
2023-03-17T08:01:03.261Z,9.40
2023-03-17T08:03:31.581Z,9.40
2023-03-17T08:06:00.864Z,9.70
2023-03-17T08:08:29.168Z,9.80
2023-03-17T08:11:03.425Z,10.00
2023-03-17T08:13:31.312Z,10.10
2023-03-17T08:15:59.236Z,10.30
2023-03-17T08:18:27.081Z,10.30
2023-03-17T08:20:55.290Z,10.60
2023-03-17T08:23:25.564Z,10.70
2023-03-17T08:25:57.984Z,10.80
2023-03-17T08:28:26.087Z,10.90
2023-03-17T08:30:54.232Z,11.10
2023-03-17T08:33:22.402Z,11.20
2023-03-17T08:35:50.915Z,11.40
2023-03-17T08:38:18.773Z,11.60
2023-03-17T08:40:50.391Z,11.80
2023-03-17T08:43:18.583Z,11.90
2023-03-17T08:45:46.520Z,11.90
2023-03-17T08:48:15.197Z,12.20
2023-03-17T08:50:43.051Z,12.40
2023-03-17T08:53:10.909Z,12.60
2023-03-17T08:55:38.817Z,12.70
2023-03-17T08:58:09.302Z,12.70
2023-03-17T09:00:37.243Z,12.60
2023-03-17T09:03:05.656Z,12.60
2023-03-17T09:05:35.681Z,12.50
2023-03-17T09:08:05.663Z,12.50
2023-03-17T09:10:33.944Z,12.60
2023-03-17T09:13:03.925Z,12.70
2023-03-17T09:15:34.664Z,12.70
2023-03-17T09:18:03.192Z,12.60
2023-03-17T09:20:31.391Z,12.80
2023-03-17T09:22:59.828Z,12.80
2023-03-17T09:25:28.608Z,12.90
2023-03-17T09:27:56.682Z,12.90
2023-03-17T09:30:26.754Z,12.90
2023-03-17T09:32:55.985Z,12.90
2023-03-17T09:35:23.907Z,13.00
2023-03-17T09:37:51.732Z,13.10
2023-03-17T09:40:25.330Z,13.10
2023-03-17T09:43:01.605Z,13.30
2023-03-17T09:45:35.123Z,13.20
2023-03-17T09:48:36.188Z,13.20
2023-03-17T09:51:06.744Z,13.30
2023-03-17T09:53:37.538Z,13.30
2023-03-17T09:56:12.641Z,13.40
2023-03-17T09:58:43.652Z,13.40
2023-03-17T10:01:12.771Z,13.70
2023-03-17T10:03:42.668Z,13.80
2023-03-17T10:06:40.941Z,14.00
2023-03-17T10:09:19.114Z,14.00
2023-03-17T10:11:49.674Z,14.20
2023-03-17T10:14:43.038Z,14.20
2023-03-17T10:17:17.422Z,14.30
2023-03-17T10:19:55.124Z,14.40
2023-03-17T10:22:29.597Z,14.40
2023-03-17T10:25:03.739Z,14.60
2023-03-17T10:27:36.184Z,14.60
2023-03-17T10:30:05.742Z,14.60
2023-03-17T10:32:37.553Z,14.60
2023-03-17T10:35:08.730Z,14.60
2023-03-17T10:37:37.092Z,14.70
2023-03-17T10:40:10.163Z,14.60
2023-03-17T10:42:49.005Z,14.40
2023-03-17T10:45:24.986Z,14.50
2023-03-17T10:47:53.459Z,14.40
2023-03-17T10:50:26.139Z,14.50
2023-03-17T10:52:57.779Z,14.70
2023-03-17T10:55:29.539Z,14.70
2023-03-17T10:58:03.653Z,14.90
2023-03-17T11:00:35.261Z,14.90
2023-03-17T11:03:12.040Z,15.10
2023-03-17T11:05:41.367Z,15.30
2023-03-17T11:08:12.608Z,15.40
2023-03-17T11:10:42.555Z,15.60
2023-03-17T11:13:11.272Z,15.80
2023-03-17T11:15:46.278Z,16.00
2023-03-17T11:18:19.085Z,16.30
2023-03-17T11:20:55.412Z,16.40
2023-03-17T11:23:33.970Z,16.50
2023-03-17T11:26:17.449Z,16.60
2023-03-17T11:28:50.133Z,16.50
2023-03-17T11:31:25.313Z,16.50
2023-03-17T11:34:00.331Z,16.70
2023-03-17T11:36:44.657Z,16.70
2023-03-17T11:39:17.064Z,16.90
2023-03-17T11:42:06.832Z,17.10
2023-03-17T11:44:52.846Z,17.20
2023-03-17T11:47:39.520Z,17.40
2023-03-17T11:50:20.464Z,17.60
2023-03-17T11:53:01.690Z,17.60
2023-03-17T11:55:37.438Z,17.80
2023-03-17T11:58:10.404Z,17.90
2023-03-17T12:00:43.824Z,17.90
2023-03-17T12:03:18.677Z,17.90
2023-03-17T12:05:50.627Z,17.70
2023-03-17T12:08:25.456Z,17.70
2023-03-17T12:10:56.623Z,17.50
2023-03-17T12:13:26.787Z,17.50
2023-03-17T12:16:03.255Z,17.60
2023-03-17T12:18:35.778Z,17.50
2023-03-17T12:21:07.981Z,17.40
2023-03-17T12:23:42.087Z,17.50
2023-03-17T12:26:13.847Z,17.50
2023-03-17T12:28:48.030Z,17.70
2023-03-17T12:31:21.508Z,18.00
2023-03-17T12:34:00.995Z,18.00
2023-03-17T12:36:29.941Z,18.10
2023-03-17T12:39:05.244Z,18.00
2023-03-17T12:41:50.887Z,17.90
2023-03-17T12:44:29.442Z,18.00
2023-03-17T12:47:37.844Z,17.90
2023-03-17T12:50:28.335Z,17.90
2023-03-17T12:53:24.461Z,17.80
2023-03-17T12:55:56.509Z,17.80
2023-03-17T12:58:33.292Z,17.70
2023-03-17T13:01:09.160Z,17.70
2023-03-17T13:03:46.697Z,17.90
2023-03-17T13:06:20.762Z,17.90
2023-03-17T13:08:52.124Z,17.80
2023-03-17T13:11:29.486Z,18.00
2023-03-17T13:14:15.338Z,17.90
2023-03-17T13:16:46.763Z,18.10
2023-03-17T13:19:21.472Z,18.00
2023-03-17T13:21:58.851Z,18.00
2023-03-17T13:24:42.423Z,17.90
2023-03-17T13:27:14.602Z,18.10
2023-03-17T13:29:47.620Z,18.30
2023-03-17T13:32:39.864Z,18.30
2023-03-17T13:35:22.097Z,18.50
2023-03-17T13:38:18.721Z,18.30
2023-03-17T13:41:03.689Z,18.30
2023-03-17T13:44:05.436Z,18.30
2023-03-17T13:46:42.157Z,18.30
2023-03-17T13:49:24.006Z,18.40
2023-03-17T13:52:00.010Z,18.40
2023-03-17T13:54:34.764Z,18.40
2023-03-17T13:57:24.176Z,18.30
2023-03-17T14:00:01.994Z,18.40
2023-03-17T14:02:32.897Z,18.40
2023-03-17T14:05:03.310Z,18.40
2023-03-17T14:07:49.337Z,18.30
2023-03-17T14:10:20.771Z,18.30
2023-03-17T14:12:55.464Z,18.40
2023-03-17T14:15:29.433Z,18.50
2023-03-17T14:18:02.146Z,18.40
2023-03-17T14:20:30.264Z,18.40
2023-03-17T14:23:01.236Z,18.50
2023-03-17T14:25:34.172Z,18.50
2023-03-17T14:28:04.906Z,18.50
2023-03-17T14:30:35.877Z,18.50
2023-03-17T14:33:07.419Z,18.40
2023-03-17T14:35:39.039Z,18.50
2023-03-17T14:38:19.874Z,18.40
2023-03-17T14:40:48.394Z,18.60
2023-03-17T14:43:16.913Z,18.60
2023-03-17T14:45:51.151Z,18.50
2023-03-17T14:48:24.465Z,18.50
2023-03-17T14:50:54.829Z,18.60
2023-03-17T14:53:24.540Z,18.50
2023-03-17T14:55:53.741Z,18.50
2023-03-17T14:58:25.539Z,18.50
2023-03-17T15:00:58.899Z,18.50
2023-03-17T15:03:31.555Z,18.60
2023-03-17T15:06:20.453Z,18.60
2023-03-17T15:08:48.506Z,18.50
2023-03-17T15:11:37.121Z,18.50
2023-03-17T15:14:15.836Z,18.50
2023-03-17T15:16:49.421Z,18.50
2023-03-17T15:19:22.582Z,18.50
2023-03-17T15:21:51.240Z,18.50
2023-03-17T15:24:39.171Z,18.50
2023-03-17T15:27:14.008Z,18.50
2023-03-17T15:29:42.244Z,18.40
2023-03-17T15:32:16.459Z,18.40
2023-03-17T15:34:44.293Z,18.30
2023-03-17T15:37:18.116Z,18.30
2023-03-17T15:39:46.050Z,18.10
2023-03-17T15:42:15.780Z,18.00
2023-03-17T15:44:43.952Z,17.90
2023-03-17T15:47:16.554Z,17.70
2023-03-17T15:49:44.705Z,17.70
2023-03-17T15:52:17.075Z,17.70
2023-03-17T15:54:46.769Z,17.50
2023-03-17T15:57:14.655Z,17.50
2023-03-17T15:59:42.445Z,17.40
2023-03-17T16:02:28.321Z,17.30
2023-03-17T16:04:56.239Z,17.40
2023-03-17T16:07:24.626Z,17.20
2023-03-17T16:09:52.726Z,17.10
2023-03-17T16:12:21.167Z,17.30
2023-03-17T16:14:49.015Z,17.10
2023-03-17T16:17:26.498Z,17.30
2023-03-17T16:19:55.779Z,17.20
2023-03-17T16:22:39.880Z,17.10
2023-03-17T16:25:24.721Z,17.10
2023-03-17T16:27:53.667Z,17.00
2023-03-17T16:30:23.657Z,17.00
2023-03-17T16:32:54.073Z,16.80
2023-03-17T16:35:23.830Z,16.80
2023-03-17T16:37:54.198Z,16.80
2023-03-17T16:40:24.933Z,16.80
2023-03-17T16:42:53.106Z,16.60
2023-03-17T16:45:27.201Z,16.60
2023-03-17T16:47:57.254Z,16.40
2023-03-17T16:50:26.881Z,16.40
2023-03-17T16:52:55.029Z,16.30
2023-03-17T16:55:27.772Z,16.20
2023-03-17T16:57:57.847Z,16.10
2023-03-17T17:00:29.029Z,16.00
2023-03-17T17:02:58.574Z,15.90
2023-03-17T17:05:28.611Z,15.80
2023-03-17T17:07:57.709Z,15.70
2023-03-17T17:10:27.635Z,15.70
2023-03-17T17:12:56.204Z,15.60
2023-03-17T17:15:24.083Z,15.40
2023-03-17T17:17:54.962Z,15.40
2023-03-17T17:20:28.862Z,15.30
2023-03-17T17:22:57.243Z,15.00
2023-03-17T17:25:26.188Z,15.00
2023-03-17T17:27:54.890Z,14.90
2023-03-17T17:30:25.487Z,14.80
2023-03-17T17:32:53.568Z,14.70
2023-03-17T17:35:21.904Z,14.70
2023-03-17T17:37:51.149Z,14.60
2023-03-17T17:40:21.109Z,14.60
2023-03-17T17:42:48.897Z,14.50
2023-03-17T17:45:16.794Z,14.40
2023-03-17T17:47:45.170Z,14.30
2023-03-17T17:50:18.694Z,14.20
2023-03-17T17:52:47.698Z,14.10
2023-03-17T17:55:17.191Z,14.00
2023-03-17T17:57:45.034Z,14.00
2023-03-17T18:00:16.615Z,14.00
2023-03-17T18:02:44.480Z,14.00
2023-03-17T18:05:13.149Z,13.90
2023-03-17T18:07:41.307Z,13.80
2023-03-17T18:10:16.024Z,13.80
2023-03-17T18:12:45.228Z,13.70
2023-03-17T18:15:13.536Z,13.60
2023-03-17T18:17:42.834Z,13.60
2023-03-17T18:20:13.340Z,13.50
2023-03-17T18:22:41.181Z,13.50
2023-03-17T18:25:10.629Z,13.50
2023-03-17T18:27:39.044Z,13.40
2023-03-17T18:30:11.560Z,13.40
2023-03-17T18:32:40.427Z,13.30
2023-03-17T18:35:13.095Z,13.30
2023-03-17T18:37:41.088Z,13.20
2023-03-17T18:40:15.091Z,13.10
2023-03-17T18:42:44.938Z,13.20
2023-03-17T18:45:15.311Z,13.10
2023-03-17T18:47:43.172Z,13.00
2023-03-17T18:50:13.756Z,13.00
2023-03-17T18:52:43.707Z,12.90
2023-03-17T18:55:13.117Z,12.80
2023-03-17T18:57:44.253Z,12.80
2023-03-17T19:00:16.196Z,12.80
2023-03-17T19:02:44.544Z,12.60
2023-03-17T19:05:12.844Z,12.70
2023-03-17T19:07:40.967Z,12.60
2023-03-17T19:10:10.152Z,12.70
2023-03-17T19:12:38.222Z,12.70
2023-03-17T19:15:07.621Z,12.60
2023-03-17T19:17:36.908Z,12.60
2023-03-17T19:20:05.680Z,12.60
2023-03-17T19:22:33.856Z,12.60
2023-03-17T19:25:04.070Z,12.60
2023-03-17T19:27:31.861Z,12.60
2023-03-17T19:29:59.767Z,12.70
2023-03-17T19:32:27.844Z,12.60
2023-03-17T19:34:57.199Z,12.70
2023-03-17T19:37:25.062Z,12.70
2023-03-17T19:39:52.866Z,12.90
2023-03-17T19:42:21.001Z,12.90
2023-03-17T19:44:48.856Z,12.90
2023-03-17T19:47:16.856Z,13.10
2023-03-17T19:49:44.741Z,13.20
2023-03-17T19:52:13.936Z,13.10
2023-03-17T19:54:45.699Z,13.20
2023-03-17T19:57:14.128Z,13.30
2023-03-17T19:59:42.038Z,13.30
2023-03-17T20:02:13.594Z,13.20
2023-03-17T20:04:41.712Z,13.30
2023-03-17T20:07:09.727Z,13.30
2023-03-17T20:09:39.280Z,13.30
2023-03-17T20:12:07.288Z,13.40
2023-03-17T20:14:35.824Z,13.20
2023-03-17T20:17:03.778Z,13.20
2023-03-17T20:19:31.572Z,13.10
2023-03-17T20:21:59.465Z,13.20
2023-03-17T20:24:29.059Z,13.10
2023-03-17T20:26:59.417Z,13.00
2023-03-17T20:29:28.010Z,13.00
2023-03-17T20:31:56.351Z,13.00
2023-03-17T20:34:24.691Z,13.10
2023-03-17T20:36:52.679Z,13.00
2023-03-17T20:39:20.642Z,13.00
2023-03-17T20:41:49.161Z,13.00
2023-03-17T20:44:18.916Z,12.80
2023-03-17T20:46:47.383Z,12.80
2023-03-17T20:49:15.729Z,12.80
2023-03-17T20:51:44.015Z,12.70
2023-03-17T20:54:12.572Z,12.70
2023-03-17T20:56:52.282Z,12.70
2023-03-17T20:59:21.441Z,12.50
2023-03-17T21:01:49.877Z,12.50
2023-03-17T21:04:20.564Z,12.30
2023-03-17T21:06:48.452Z,12.30
2023-03-17T21:09:16.279Z,12.30
2023-03-17T21:11:44.186Z,12.20
2023-03-17T21:14:14.123Z,12.10
2023-03-17T21:16:44.959Z,12.10
2023-03-17T21:19:14.533Z,12.20
2023-03-17T21:21:43.004Z,12.10
2023-03-17T21:24:24.369Z,12.20
2023-03-17T21:26:52.191Z,12.20
2023-03-17T21:29:20.506Z,12.30
2023-03-17T21:31:49.775Z,12.30
2023-03-17T21:34:17.794Z,12.30
2023-03-17T21:36:46.074Z,12.20
2023-03-17T21:39:13.905Z,12.10
2023-03-17T21:41:41.900Z,12.20
2023-03-17T21:44:11.746Z,12.20
2023-03-17T21:46:39.606Z,12.30
2023-03-17T21:49:09.325Z,12.20
2023-03-17T21:51:37.310Z,12.20
2023-03-17T21:54:06.266Z,12.20
2023-03-17T21:56:34.364Z,12.20
2023-03-17T21:59:02.275Z,12.30
2023-03-17T22:01:30.234Z,12.40
2023-03-17T22:03:58.149Z,12.40
2023-03-17T22:06:29.329Z,12.40
2023-03-17T22:08:57.373Z,12.30
2023-03-17T22:11:25.275Z,12.50
2023-03-17T22:13:53.130Z,12.50
2023-03-17T22:16:21.510Z,12.40
2023-03-17T22:18:49.377Z,12.40
2023-03-17T22:21:17.310Z,12.40
2023-03-17T22:23:46.535Z,12.50
2023-03-17T22:26:17.307Z,12.40
2023-03-17T22:28:46.036Z,12.50
2023-03-17T22:31:16.305Z,12.40
2023-03-17T22:33:44.661Z,12.40
2023-03-17T22:36:13.124Z,12.40
2023-03-17T22:38:41.265Z,12.30
2023-03-17T22:41:13.577Z,12.30
2023-03-17T22:43:42.188Z,12.40
2023-03-17T22:46:10.949Z,12.30
2023-03-17T22:48:40.074Z,12.30
2023-03-17T22:51:10.897Z,12.30
2023-03-17T22:53:39.980Z,12.20
2023-03-17T22:56:10.911Z,12.30
2023-03-17T22:58:38.821Z,12.10
2023-03-17T23:01:07.429Z,12.00
2023-03-17T23:03:36.257Z,12.00
2023-03-17T23:06:05.659Z,12.00
2023-03-17T23:08:36.011Z,12.00
2023-03-17T23:11:07.155Z,12.20
2023-03-17T23:13:36.581Z,12.10
2023-03-17T23:16:06.408Z,12.10
2023-03-17T23:18:34.621Z,12.10
2023-03-17T23:21:03.306Z,12.10
2023-03-17T23:23:32.078Z,12.00
2023-03-17T23:26:01.676Z,12.10
2023-03-17T23:28:29.712Z,12.00
2023-03-17T23:30:59.235Z,12.00
2023-03-17T23:33:28.244Z,11.80
2023-03-17T23:35:56.304Z,11.90
2023-03-17T23:38:24.137Z,11.90
2023-03-17T23:40:52.398Z,11.90
2023-03-17T23:43:21.183Z,12.00
2023-03-17T23:45:52.508Z,12.00
2023-03-17T23:48:22.484Z,12.10
2023-03-17T23:50:53.290Z,12.10
2023-03-17T23:53:21.548Z,12.00
2023-03-17T23:55:49.945Z,12.10
2023-03-17T23:58:18.054Z,12.10
